Time;durP1;ratioP1;P1;durP2;ratioP2;P2;SDS_P1;SDS_P2;PMS_P1;PMS_P2;Temp;Humidity;BMP_temperature;BMP_pressure;BME280_temperature;BME280_humidity;BME280_pressure;Samples;Min_cycle;Max_cycle;Signal;HPM_P1;HPM_P2
2024/04/19 00:01:39;;;;;;;4.05;3.20;;;4.40;99.90;;;;;;5305797;26;20013;-59
2024/04/19 00:04:06;;;;;;;8.18;3.72;;;4.40;99.90;;;;;;5305325;26;20446;-58
2024/04/19 00:06:33;;;;;;;7.60;3.40;;;4.40;99.90;;;;;;5308253;26;20006;-60
2024/04/19 00:09:01;;;;;;;5.22;3.75;;;4.40;99.90;;;;;;5311500;26;19998;-58
2024/04/19 00:11:28;;;;;;;3.85;3.25;;;4.40;99.90;;;;;;5305633;26;20046;-59
2024/04/19 00:13:55;;;;;;;4.70;3.35;;;4.40;99.90;;;;;;5312588;26;20013;-58
2024/04/19 00:16:22;;;;;;;4.43;3.40;;;4.40;99.90;;;;;;5311721;26;20005;-55
2024/04/19 00:18:49;;;;;;;3.78;3.40;;;4.40;99.90;;;;;;5303185;26;20009;-58
2024/04/19 00:21:16;;;;;;;5.68;3.60;;;4.40;99.90;;;;;;5345083;21;20008;-62
2024/04/19 00:23:43;;;;;;;4.18;3.45;;;4.40;99.90;;;;;;5371269;26;20004;-62
2024/04/19 00:26:10;;;;;;;4.90;3.53;;;4.40;99.90;;;;;;5381759;26;20341;-62
2024/04/19 00:28:37;;;;;;;4.78;3.58;;;4.40;99.90;;;;;;5375600;26;20008;-62
2024/04/19 00:31:05;;;;;;;5.50;3.75;;;4.40;99.90;;;;;;5383037;26;20070;-60
2024/04/19 00:33:32;;;;;;;3.70;3.00;;;4.40;99.90;;;;;;5376480;26;20008;-62
2024/04/19 00:35:59;;;;;;;4.97;3.45;;;4.30;99.90;;;;;;5377235;26;20005;-60
2024/04/19 00:38:26;;;;;;;4.13;3.03;;;4.30;99.90;;;;;;5377438;26;20001;-62
2024/04/19 00:40:54;;;;;;;4.60;3.70;;;4.30;99.90;;;;;;5378111;26;20011;-62
2024/04/19 00:43:21;;;;;;;5.22;4.00;;;4.40;99.90;;;;;;5389281;26;20609;-62
2024/04/19 00:45:50;;;;;;;6.10;3.78;;;4.30;99.90;;;;;;5371223;26;20001;-62
2024/04/19 00:48:20;;;;;;;3.80;3.00;;;4.40;99.90;;;;;;5375128;26;20012;-62
2024/04/19 00:50:59;;;;;;;5.83;3.73;;;4.40;99.90;;;;;;5374315;26;20004;-61
2024/04/19 00:53:30;;;;;;;5.20;3.72;;;4.40;99.90;;;;;;5385129;26;20008;-62
2024/04/19 00:55:59;;;;;;;3.83;3.33;;;4.40;99.90;;;;;;5385164;26;20000;-62
2024/04/19 00:58:28;;;;;;;5.10;3.30;;;4.50;99.90;;;;;;5370201;26;20008;-62
2024/04/19 01:01:01;;;;;;;7.10;3.80;;;4.40;99.90;;;;;;5382930;26;20521;-61
2024/04/19 01:03:29;;;;;;;5.40;4.05;;;4.50;99.90;;;;;;5378072;26;20012;-61
2024/04/19 01:05:56;;;;;;;5.18;3.75;;;4.50;99.90;;;;;;5387535;26;20019;-60
2024/04/19 01:08:23;;;;;;;6.43;3.58;;;4.50;99.90;;;;;;5376430;26;20012;-62
2024/04/19 01:10:51;;;;;;;6.07;3.45;;;4.60;99.90;;;;;;5371866;26;20326;-62
2024/04/19 01:13:19;;;;;;;4.78;3.65;;;4.60;99.90;;;;;;5378577;26;20019;-60
2024/04/19 01:15:47;;;;;;;4.70;4.00;;;4.60;99.90;;;;;;5375093;26;20008;-62
2024/04/19 01:18:15;;;;;;;6.68;3.83;;;4.70;99.90;;;;;;5376256;26;20014;-62
2024/04/19 01:20:43;;;;;;;5.78;4.07;;;4.60;99.90;;;;;;5373431;26;20004;-61
2024/04/19 01:23:12;;;;;;;5.68;4.30;;;4.70;99.90;;;;;;5377945;26;20012;-62
2024/04/19 01:25:41;;;;;;;5.88;4.20;;;4.70;99.90;;;;;;5376968;26;20011;-59
2024/04/19 01:28:10;;;;;;;7.20;4.85;;;4.70;99.90;;;;;;5375688;26;20412;-62
2024/04/19 01:30:40;;;;;;;5.68;4.32;;;4.80;99.90;;;;;;5380693;26;20012;-62
2024/04/19 01:33:07;;;;;;;7.75;4.57;;;4.80;99.90;;;;;;5381214;26;20453;-61
2024/04/19 01:35:34;;;;;;;7.20;4.43;;;4.80;99.90;;;;;;5383047;26;20000;-61
2024/04/19 01:38:02;;;;;;;5.05;3.88;;;4.80;99.90;;;;;;5376655;26;20001;-62
2024/04/19 01:40:28;;;;;;;6.68;4.25;;;4.80;99.90;;;;;;5373446;26;20460;-61
2024/04/19 01:42:55;;;;;;;5.15;4.03;;;4.90;99.90;;;;;;5375699;26;20000;-62
2024/04/19 01:45:22;;;;;;;10.10;4.70;;;4.90;99.90;;;;;;5375258;26;20014;-62
2024/04/19 01:47:49;;;;;;;6.43;4.63;;;4.90;99.90;;;;;;5373753;26;20023;-62
2024/04/19 01:50:16;;;;;;;7.32;4.15;;;4.90;99.90;;;;;;5378421;26;20000;-62
2024/04/19 01:52:43;;;;;;;6.82;4.53;;;4.90;99.90;;;;;;5374895;26;20004;-61
2024/04/19 01:55:09;;;;;;;4.97;3.97;;;5.00;99.90;;;;;;5380737;26;20488;-60
2024/04/19 01:57:36;;;;;;;6.20;4.43;;;5.00;99.90;;;;;;5381537;26;20015;-62
2024/04/19 02:00:04;;;;;;;5.60;4.25;;;5.00;99.90;;;;;;5378057;26;19996;-61
2024/04/19 02:02:31;;;;;;;6.60;4.07;;;5.10;99.90;;;;;;5388439;26;20042;-61
2024/04/19 02:04:58;;;;;;;6.28;4.82;;;5.10;99.90;;;;;;5381486;26;20004;-62
2024/04/19 02:07:25;;;;;;;6.90;4.50;;;5.20;99.90;;;;;;5376247;26;20004;-60
2024/04/19 02:09:53;;;;;;;5.75;4.43;;;5.20;99.90;;;;;;5374055;26;20420;-61
2024/04/19 02:12:20;;;;;;;4.90;4.28;;;5.20;99.90;;;;;;5373793;26;20031;-62
2024/04/19 02:14:47;;;;;;;6.85;5.10;;;5.20;99.90;;;;;;5375129;26;20070;-61
2024/04/19 02:17:14;;;;;;;5.38;4.10;;;5.30;99.90;;;;;;5377288;26;20004;-62
2024/04/19 02:19:42;;;;;;;5.88;4.30;;;5.30;99.90;;;;;;5381395;26;19996;-62
2024/04/19 02:22:09;;;;;;;7.22;4.32;;;5.30;99.90;;;;;;5375670;26;20047;-62
2024/04/19 02:24:36;;;;;;;6.90;4.85;;;5.30;99.90;;;;;;5374776;26;20325;-62
2024/04/19 02:27:06;;;;;;;8.40;4.85;;;5.20;99.90;;;;;;5374804;26;20004;-62
2024/04/19 02:32:18;;;;;;;6.57;4.85;;;5.20;99.90;;;;;;5374648;26;20016;-61
2024/04/19 02:34:45;;;;;;;7.22;5.60;;;5.20;99.90;;;;;;5375461;26;20003;-62
2024/04/19 02:37:14;;;;;;;6.55;5.00;;;5.30;99.90;;;;;;5379488;26;20011;-62
2024/04/19 02:39:40;;;;;;;8.05;5.50;;;5.30;99.90;;;;;;5385282;26;20018;-62
2024/04/19 02:42:07;;;;;;;6.50;5.47;;;5.30;99.90;;;;;;5383452;26;20415;-62
2024/04/19 02:44:34;;;;;;;7.00;5.10;;;5.30;99.90;;;;;;5378638;26;20020;-62
2024/04/19 02:47:01;;;;;;;7.05;5.25;;;5.30;99.90;;;;;;5376178;26;20329;-62
2024/04/19 02:49:28;;;;;;;9.73;5.82;;;5.20;99.90;;;;;;5382396;26;20008;-62
2024/04/19 02:51:55;;;;;;;9.43;5.60;;;5.20;99.90;;;;;;5378855;26;20012;-62
2024/04/19 02:54:22;;;;;;;6.40;4.93;;;5.10;99.90;;;;;;5380071;26;20013;-62
2024/04/19 02:56:49;;;;;;;7.38;5.93;;;5.10;99.90;;;;;;5379863;26;20004;-62
2024/04/19 02:59:16;;;;;;;8.63;6.55;;;5.10;99.90;;;;;;5391569;26;20008;-62
2024/04/19 03:01:43;;;;;;;7.55;5.43;;;5.00;99.90;;;;;;5384757;26;20012;-62
2024/04/19 03:04:09;;;;;;;8.07;5.18;;;4.90;99.90;;;;;;5378329;26;20007;-62
2024/04/19 03:06:36;;;;;;;7.05;4.93;;;4.80;99.90;;;;;;5377918;26;20017;-61
2024/04/19 03:09:03;;;;;;;7.32;5.10;;;4.80;99.90;;;;;;5379412;26;20080;-62
2024/04/19 03:11:30;;;;;;;7.97;5.80;;;4.80;99.90;;;;;;5381001;26;19996;-62
2024/04/19 03:13:57;;;;;;;6.80;5.20;;;4.80;99.90;;;;;;5374032;26;20022;-62
2024/04/19 03:16:24;;;;;;;9.00;5.50;;;4.80;99.90;;;;;;5378961;26;20004;-62
2024/04/19 03:18:51;;;;;;;10.40;6.07;;;4.80;99.90;;;;;;5385770;26;20015;-62
2024/04/19 03:21:18;;;;;;;8.32;5.80;;;4.80;99.90;;;;;;5379582;26;20012;-62
2024/04/19 03:23:44;;;;;;;9.55;6.47;;;4.80;99.90;;;;;;5372708;26;20004;-62
2024/04/19 03:26:11;;;;;;;10.00;6.25;;;4.70;99.90;;;;;;5373531;26;20078;-62
2024/04/19 03:28:38;;;;;;;7.22;4.88;;;4.70;99.90;;;;;;5379065;26;20441;-62
2024/04/19 03:31:08;;;;;;;10.55;6.22;;;4.60;99.90;;;;;;5374110;26;20460;-62
2024/04/19 03:33:35;;;;;;;8.00;5.80;;;4.60;99.90;;;;;;5377599;26;20449;-62
2024/04/19 03:36:04;;;;;;;8.98;5.40;;;4.60;99.90;;;;;;5378870;26;20000;-62
2024/04/19 03:38:31;;;;;;;8.23;6.10;;;4.70;99.90;;;;;;5374478;26;20073;-62
2024/04/19 03:40:58;;;;;;;8.38;6.00;;;4.70;99.90;;;;;;5378091;26;20004;-62
2024/04/19 03:43:32;;;;;;;8.90;5.75;;;4.70;99.90;;;;;;5383438;26;20052;-60
2024/04/19 03:46:00;;;;;;;8.32;6.07;;;4.70;99.90;;;;;;5372379;26;20008;-62
2024/04/19 03:48:27;;;;;;;8.32;5.80;;;4.70;99.90;;;;;;5382737;26;20289;-62
2024/04/19 03:50:54;;;;;;;8.60;5.43;;;4.80;99.90;;;;;;5384478;26;19997;-61
2024/04/19 03:53:21;;;;;;;6.30;4.78;;;4.80;99.90;;;;;;5382105;26;20003;-62
2024/04/19 03:55:48;;;;;;;9.15;5.90;;;4.90;99.90;;;;;;5374603;26;20008;-62
2024/04/19 03:58:14;;;;;;;9.90;5.93;;;5.00;99.90;;;;;;5373670;26;20008;-62
2024/04/19 04:00:41;;;;;;;8.70;5.25;;;5.10;99.90;;;;;;5382271;26;20010;-62
2024/04/19 04:03:09;;;;;;;7.95;5.57;;;5.10;99.90;;;;;;5376701;26;19997;-62
2024/04/19 04:05:36;;;;;;;10.60;5.28;;;5.20;99.90;;;;;;5376700;26;20354;-62
2024/04/19 04:08:03;;;;;;;7.45;5.47;;;5.20;99.90;;;;;;5380011;26;20502;-62
2024/04/19 04:10:30;;;;;;;7.50;5.40;;;5.30;99.90;;;;;;5374614;26;20019;-62
2024/04/19 04:12:56;;;;;;;7.22;5.43;;;5.30;99.90;;;;;;5374564;26;19996;-62
2024/04/19 04:15:24;;;;;;;8.07;5.50;;;5.40;99.90;;;;;;5380219;26;20012;-62
2024/04/19 04:17:51;;;;;;;8.18;5.93;;;5.50;99.90;;;;;;5371098;26;20348;-62
2024/04/19 04:20:18;;;;;;;7.18;5.63;;;5.50;99.90;;;;;;5374544;26;20008;-62
2024/04/19 04:22:45;;;;;;;9.38;5.60;;;5.60;99.90;;;;;;5370748;26;20353;-62
2024/04/19 04:25:12;;;;;;;6.97;5.72;;;5.60;99.90;;;;;;5376413;26;20008;-62
2024/04/19 04:27:38;;;;;;;10.55;5.90;;;5.70;99.90;;;;;;5380903;26;20012;-62
2024/04/19 04:30:06;;;;;;;6.82;5.65;;;5.70;99.90;;;;;;5378516;26;20000;-62
2024/04/19 04:32:33;;;;;;;7.65;5.88;;;5.70;99.90;;;;;;5381637;26;19996;-62
2024/04/19 04:35:00;;;;;;;7.97;5.28;;;5.70;99.90;;;;;;5373804;26;20020;-61
2024/04/19 04:37:28;;;;;;;8.63;5.38;;;5.70;99.90;;;;;;5369358;26;20008;-62
2024/04/19 04:39:55;;;;;;;10.63;6.57;;;5.70;99.90;;;;;;5376665;26;20087;-61
2024/04/19 04:42:22;;;;;;;8.35;5.70;;;5.70;99.90;;;;;;5374638;26;20055;-62
2024/04/19 04:44:49;;;;;;;8.90;5.72;;;5.70;99.90;;;;;;5372995;26;20043;-62
2024/04/19 04:47:16;;;;;;;8.25;5.50;;;5.70;99.90;;;;;;5379295;26;20016;-62
2024/04/19 04:49:43;;;;;;;8.27;5.80;;;5.80;99.90;;;;;;5375094;26;20073;-61
2024/04/19 04:52:09;;;;;;;7.80;5.63;;;5.80;99.90;;;;;;5371506;26;20479;-60
2024/04/19 04:54:36;;;;;;;22.10;12.80;;;5.80;99.90;;;;;;5385137;26;20550;-62
2024/04/19 04:57:07;;;;;;;24.15;12.25;;;5.80;99.90;;;;;;5390537;26;20145;-62
2024/04/19 04:59:35;;;;;;;18.30;9.57;;;5.80;99.90;;;;;;5382130;26;20018;-62
2024/04/19 05:02:03;;;;;;;9.88;6.30;;;5.80;99.90;;;;;;5354329;26;39214;-62
2024/04/19 05:04:30;;;;;;;8.07;6.10;;;5.80;99.90;;;;;;5344347;26;20005;-62
2024/04/19 05:06:57;;;;;;;10.73;7.32;;;5.80;99.90;;;;;;5350457;26;20400;-62
2024/04/19 05:09:24;;;;;;;7.85;5.28;;;5.80;99.90;;;;;;5347161;26;20009;-62
2024/04/19 05:11:51;;;;;;;7.50;5.80;;;5.90;99.90;;;;;;5343646;26;20005;-62
2024/04/19 05:14:18;;;;;;;8.82;5.65;;;5.90;99.90;;;;;;5352045;26;20001;-62
2024/04/19 05:16:44;;;;;;;8.82;5.50;;;6.00;99.90;;;;;;5336225;26;20014;-62
2024/04/19 05:19:11;;;;;;;8.52;6.15;;;6.00;99.90;;;;;;5344682;26;20263;-61
2024/04/19 05:21:38;;;;;;;9.57;6.10;;;6.00;99.90;;;;;;5373831;26;20082;-62
2024/04/19 05:24:06;;;;;;;8.18;5.85;;;5.90;99.90;;;;;;5386051;26;19999;-62
2024/04/19 05:26:33;;;;;;;7.72;5.35;;;6.00;99.90;;;;;;5384158;26;20003;-62
2024/04/19 05:29:00;;;;;;;7.75;5.55;;;6.00;99.90;;;;;;5395921;26;19999;-61
2024/04/19 05:31:26;;;;;;;8.55;6.28;;;6.00;99.90;;;;;;5401318;26;20380;-62
2024/04/19 05:33:53;;;;;;;7.50;5.93;;;6.10;99.90;;;;;;5399591;26;20012;-62
2024/04/19 05:36:20;;;;;;;6.82;5.13;;;6.10;99.90;;;;;;5368025;26;20461;-60
2024/04/19 05:38:47;;;;;;;8.73;5.90;;;6.10;99.90;;;;;;5401364;26;20004;-62
2024/04/19 05:41:14;;;;;;;9.65;5.57;;;6.10;99.90;;;;;;5383944;26;20009;-61
2024/04/19 05:43:41;;;;;;;11.55;4.88;;;6.10;99.90;;;;;;5383307;26;20004;-62
2024/04/19 05:46:08;;;;;;;10.55;5.82;;;6.10;99.90;;;;;;5352275;26;20000;-62
2024/04/19 05:48:35;;;;;;;8.50;5.95;;;6.20;99.90;;;;;;5386034;26;20707;-62
2024/04/19 05:51:02;;;;;;;8.20;5.80;;;6.20;99.90;;;;;;5392242;26;20065;-61
2024/04/19 05:53:29;;;;;;;9.65;5.68;;;6.30;99.90;;;;;;5374146;26;20333;-61
2024/04/19 05:55:55;;;;;;;7.25;5.53;;;6.30;99.90;;;;;;5384113;26;20004;-61
2024/04/19 05:58:24;;;;;;;7.75;5.80;;;6.30;99.90;;;;;;5381166;26;20090;-61
2024/04/19 06:00:51;;;;;;;10.10;7.22;;;6.40;99.90;;;;;;5397593;26;20016;-61
2024/04/19 06:03:18;;;;;;;8.50;5.85;;;6.40;99.90;;;;;;5383462;26;20000;-60
2024/04/19 06:05:45;;;;;;;9.10;5.68;;;6.50;99.90;;;;;;5388998;26;20074;-62
2024/04/19 06:08:12;;;;;;;9.55;5.97;;;6.50;99.90;;;;;;5392303;26;20008;-57
2024/04/19 06:10:40;;;;;;;7.95;6.03;;;6.50;99.90;;;;;;5395277;26;20000;-60
2024/04/19 06:13:07;;;;;;;7.57;5.82;;;6.50;99.90;;;;;;5393069;26;20004;-57
2024/04/19 06:15:36;;;;;;;8.23;6.10;;;6.50;99.90;;;;;;5395820;26;20022;-55
2024/04/19 06:18:04;;;;;;;7.38;5.65;;;6.50;99.90;;;;;;5383680;26;20479;-55
2024/04/19 06:20:31;;;;;;;10.40;6.22;;;6.60;99.90;;;;;;5382772;26;20004;-61
2024/04/19 06:22:58;;;;;;;10.63;6.15;;;6.60;99.90;;;;;;5373879;26;20012;-59
2024/04/19 06:25:24;;;;;;;8.27;5.88;;;6.70;99.90;;;;;;5384953;26;20053;-59
2024/04/19 06:27:51;;;;;;;9.57;6.80;;;6.70;99.90;;;;;;5376184;26;20009;-60
2024/04/19 06:30:18;;;;;;;7.97;5.93;;;6.70;99.90;;;;;;5380318;21;20031;-56
2024/04/19 06:32:45;;;;;;;9.75;5.95;;;6.80;99.90;;;;;;5338910;26;20000;-57
2024/04/19 06:35:16;;;;;;;9.73;7.22;;;6.80;99.90;;;;;;5334633;26;20001;-59
2024/04/19 06:37:42;;;;;;;9.75;5.70;;;6.90;99.90;;;;;;5338734;26;20012;-57
2024/04/19 06:40:09;;;;;;;8.68;5.80;;;7.00;99.90;;;;;;5336378;26;20015;-59
2024/04/19 06:42:36;;;;;;;8.00;6.00;;;7.10;99.90;;;;;;5335928;26;20037;-60
2024/04/19 06:45:04;;;;;;;7.95;5.97;;;7.10;99.90;;;;;;5338083;26;20009;-58
2024/04/19 06:47:34;;;;;;;8.80;6.07;;;7.10;99.90;;;;;;5332694;26;20516;-60
2024/04/19 06:50:01;;;;;;;;;;;7.20;99.90;;;;;;5338018;26;20012;-60
2024/04/19 06:52:28;;;;;;;9.27;5.68;;;7.30;99.90;;;;;;5336402;26;19969;-60
2024/04/19 06:54:55;;;;;;;7.78;5.60;;;7.40;99.90;;;;;;5334450;26;20075;-58
2024/04/19 06:57:22;;;;;;;8.73;5.72;;;7.40;99.90;;;;;;5333322;26;20024;-59
2024/04/19 06:59:48;;;;;;;8.70;5.95;;;7.50;99.90;;;;;;5337046;26;20596;-60
2024/04/19 07:02:16;;;;;;;9.27;6.75;;;7.50;99.90;;;;;;5323068;26;20080;-59
2024/04/19 07:04:43;;;;;;;8.32;6.03;;;7.50;99.90;;;;;;5334324;26;20048;-61
2024/04/19 07:07:11;;;;;;;8.75;6.50;;;7.60;99.90;;;;;;5334100;26;20008;-60
2024/04/19 07:09:37;;;;;;;8.02;5.97;;;7.60;99.90;;;;;;5335105;26;20364;-61
2024/04/19 07:12:05;;;;;;;10.05;6.05;;;7.70;99.90;;;;;;5329633;26;20017;-61
2024/04/19 07:14:32;;;;;;;9.60;6.18;;;7.70;99.90;;;;;;5334341;26;20074;-60
2024/04/19 07:16:58;;;;;;;9.73;6.60;;;7.70;99.90;;;;;;5333837;26;20002;-59
2024/04/19 07:19:25;;;;;;;9.23;6.28;;;7.80;99.90;;;;;;5336521;26;20341;-58
2024/04/19 07:21:52;;;;;;;9.20;6.72;;;7.90;99.90;;;;;;5333455;26;20020;-60
2024/04/19 07:24:19;;;;;;;8.10;6.18;;;8.10;99.90;;;;;;5335148;26;20345;-60
2024/04/19 07:26:46;;;;;;;7.65;6.05;;;8.20;99.90;;;;;;5332413;26;20016;-60
2024/04/19 07:29:13;;;;;;;10.23;6.47;;;8.40;99.90;;;;;;5335275;26;20378;-62
2024/04/19 07:31:42;;;;;;;8.47;6.00;;;8.50;99.90;;;;;;5334534;26;20013;-61
2024/04/19 07:34:09;;;;;;;8.88;6.68;;;8.60;99.90;;;;;;5330964;26;20021;-62
2024/04/19 07:36:36;;;;;;;9.20;6.20;;;8.80;99.90;;;;;;5326608;26;20016;-63
2024/04/19 07:39:03;;;;;;;7.70;5.75;;;9.00;99.90;;;;;;5327807;26;20345;-61
2024/04/19 07:41:30;;;;;;;7.38;5.78;;;9.00;99.90;;;;;;5326545;26;20282;-62
2024/04/19 07:43:57;;;;;;;9.63;6.82;;;9.00;99.90;;;;;;5326638;26;20011;-60
2024/04/19 07:46:27;;;;;;;10.65;5.72;;;9.00;99.90;;;;;;5330618;26;20004;-59
2024/04/19 07:48:54;;;;;;;9.45;6.38;;;9.00;99.90;;;;;;5334922;26;20009;-59
2024/04/19 07:51:22;;;;;;;8.32;6.28;;;9.20;99.90;;;;;;5325232;26;20036;-60
2024/04/19 07:53:49;;;;;;;9.10;6.40;;;9.20;99.90;;;;;;5336953;26;20036;-59
2024/04/19 07:56:16;;;;;;;7.38;5.72;;;9.30;99.90;;;;;;5335144;26;19997;-61
2024/04/19 07:58:44;;;;;;;8.95;6.50;;;9.40;99.90;;;;;;5337286;26;20015;-61
2024/04/19 08:01:11;;;;;;;8.90;6.50;;;9.40;99.90;;;;;;5338410;26;20011;-60
2024/04/19 08:03:39;;;;;;;8.68;6.72;;;9.30;99.90;;;;;;5326858;26;20024;-58
2024/04/19 08:06:06;;;;;;;10.98;7.07;;;9.10;99.90;;;;;;5338614;26;20352;-60
2024/04/19 08:08:33;;;;;;;11.82;6.90;;;8.80;99.90;;;;;;5336103;26;20079;-59
2024/04/19 08:11:01;;;;;;;8.27;6.55;;;8.70;99.90;;;;;;5348887;26;20296;-61
2024/04/19 08:13:28;;;;;;;11.82;6.70;;;8.60;99.90;;;;;;5333112;26;20006;-61
2024/04/19 08:15:55;;;;;;;8.95;6.03;;;8.30;99.90;;;;;;5342408;26;20001;-59
2024/04/19 08:18:22;;;;;;;11.52;7.07;;;8.30;99.90;;;;;;5331034;26;20011;-58
2024/04/19 08:20:49;;;;;;;8.55;6.38;;;8.20;99.90;;;;;;5335568;26;20548;-56
2024/04/19 08:23:15;;;;;;;9.45;7.28;;;8.20;99.90;;;;;;5330310;26;20002;-58
2024/04/19 08:25:44;;;;;;;11.02;7.68;;;8.20;99.90;;;;;;5334815;26;20024;-56
2024/04/19 08:28:11;;;;;;;11.20;7.18;;;8.20;99.90;;;;;;5332780;26;20350;-56
2024/04/19 08:30:38;;;;;;;9.13;6.28;;;8.20;99.90;;;;;;5333588;26;20001;-59
2024/04/19 08:33:05;;;;;;;11.18;6.53;;;8.20;99.90;;;;;;5327799;26;20010;-57
2024/04/19 08:35:32;;;;;;;8.10;6.13;;;8.10;99.90;;;;;;5332150;26;20004;-57
2024/04/19 08:38:00;;;;;;;10.13;6.50;;;8.00;99.90;;;;;;5332275;26;20428;-53
2024/04/19 08:40:29;;;;;;;7.93;5.80;;;8.00;99.90;;;;;;5328022;26;20005;-55
2024/04/19 08:42:59;;;;;;;8.20;5.53;;;7.90;99.90;;;;;;5335209;26;20011;-57
2024/04/19 08:45:26;;;;;;;;;;;8.00;99.90;;;;;;5331582;26;20034;-56
2024/04/19 08:47:54;;;;;;;9.85;6.47;;;8.00;99.90;;;;;;5333680;26;19941;-55
2024/04/19 08:50:21;;;;;;;9.13;6.20;;;8.10;99.90;;;;;;5329125;26;20013;-57
2024/04/19 08:52:49;;;;;;;9.30;6.95;;;8.10;99.90;;;;;;5330384;26;20474;-57
2024/04/19 08:55:38;;;;;;;8.88;6.55;;;8.10;99.90;;;;;;5333762;26;20362;-56
2024/04/19 08:58:06;;;;;;;11.38;6.30;;;7.90;99.90;;;;;;5332482;26;20012;-58
2024/04/19 09:00:33;;;;;;;9.82;6.75;;;7.90;99.90;;;;;;5327048;26;20349;-56
2024/04/19 09:03:00;;;;;;;8.93;6.50;;;7.80;99.90;;;;;;5333961;26;20045;-54
2024/04/19 09:05:28;;;;;;;9.50;6.45;;;7.80;99.90;;;;;;5329044;26;20009;-57
2024/04/19 09:07:55;;;;;;;9.70;6.63;;;7.80;99.90;;;;;;5334970;26;20005;-55
2024/04/19 09:10:22;;;;;;;9.25;6.68;;;7.70;99.90;;;;;;5336860;26;20326;-55
2024/04/19 09:12:49;;;;;;;8.85;6.38;;;7.70;99.90;;;;;;5336052;26;20372;-58
2024/04/19 09:15:17;;;;;;;13.13;7.18;;;7.70;99.90;;;;;;5337033;26;20400;-58
2024/04/19 09:17:46;;;;;;;10.57;6.85;;;7.70;99.90;;;;;;5330634;26;20005;-56
2024/04/19 09:20:13;;;;;;;10.52;6.90;;;7.60;99.90;;;;;;5327729;26;20015;-54
2024/04/19 09:22:40;;;;;;;10.75;7.10;;;7.70;99.90;;;;;;5331905;26;20342;-56
2024/04/19 09:25:07;;;;;;;10.98;7.50;;;7.70;99.90;;;;;;5329297;26;20082;-59
2024/04/19 09:27:34;;;;;;;10.05;7.35;;;7.70;99.90;;;;;;5324565;26;20005;-57
2024/04/19 09:30:02;;;;;;;12.32;7.75;;;7.70;99.90;;;;;;5335658;26;20005;-56
2024/04/19 09:32:29;;;;;;;10.50;7.93;;;7.70;99.90;;;;;;5335627;26;20005;-58
2024/04/19 09:34:56;;;;;;;11.48;7.65;;;7.80;99.90;;;;;;5329024;26;20001;-55
2024/04/19 09:37:24;;;;;;;11.48;7.57;;;7.80;99.90;;;;;;5341559;26;20005;-55
2024/04/19 09:39:51;;;;;;;11.18;7.63;;;7.80;99.90;;;;;;5323202;26;20074;-60
2024/04/19 09:42:21;;;;;;;10.98;7.68;;;7.80;99.90;;;;;;5337332;26;20009;-59
2024/04/19 09:44:50;;;;;;;13.18;7.50;;;7.90;99.90;;;;;;5334923;26;19997;-58
2024/04/19 09:47:19;;;;;;;12.05;6.95;;;8.00;99.90;;;;;;5328568;26;20012;-57
2024/04/19 09:49:46;;;;;;;10.40;6.68;;;8.00;99.90;;;;;;5330906;26;20490;-59
2024/04/19 09:52:24;;;;;;;12.23;7.68;;;8.10;99.90;;;;;;5332750;26;20001;-59
2024/04/19 09:55:20;;;;;;;9.38;6.70;;;8.20;99.90;;;;;;5331391;26;20378;-54
2024/04/19 09:57:50;;;;;;;9.82;7.22;;;8.20;99.90;;;;;;5326877;26;20007;-58
2024/04/19 10:00:18;;;;;;;11.27;6.80;;;8.30;99.90;;;;;;5329692;26;20010;-57
2024/04/19 10:02:46;;;;;;;10.25;7.30;;;8.30;99.90;;;;;;5332684;26;20012;-61
2024/04/19 10:05:13;;;;;;;10.48;6.90;;;8.30;99.90;;;;;;5341221;26;20013;-59
2024/04/19 10:07:41;;;;;;;8.98;6.22;;;8.40;99.90;;;;;;5328709;26;20096;-61
2024/04/19 10:10:08;;;;;;;10.45;7.35;;;8.40;99.90;;;;;;5338424;26;20000;-60
2024/04/19 10:12:36;;;;;;;10.90;6.50;;;8.60;99.90;;;;;;5331542;26;19997;-59
2024/04/19 10:15:11;;;;;;;10.70;6.55;;;8.60;99.90;;;;;;5337058;26;20350;-60
2024/04/19 10:17:38;;;;;;;;;;;8.50;99.90;;;;;;5332849;26;20412;-56
2024/04/19 10:20:08;;;;;;;8.30;5.75;;;8.50;99.90;;;;;;5337664;26;19934;-60
2024/04/19 10:22:35;;;;;;;8.38;6.00;;;8.40;99.90;;;;;;5337179;26;20024;-61
2024/04/19 10:25:02;;;;;;;8.93;6.00;;;8.40;99.90;;;;;;5332450;26;20020;-56
2024/04/19 10:27:32;;;;;;;7.70;6.20;;;8.40;99.90;;;;;;5332374;26;20424;-61
2024/04/19 10:30:03;;;;;;;6.40;5.60;;;8.40;99.90;;;;;;5334970;26;20019;-59
2024/04/19 10:32:30;;;;;;;7.30;5.75;;;8.50;99.90;;;;;;5326540;26;20009;-59
2024/04/19 10:34:57;;;;;;;6.28;5.03;;;8.50;99.90;;;;;;5335826;26;20342;-59
2024/04/19 10:37:24;;;;;;;7.22;5.82;;;8.50;99.90;;;;;;5337929;26;20011;-58
2024/04/19 10:39:51;;;;;;;6.60;4.90;;;8.50;99.90;;;;;;5332668;26;20012;-59
2024/04/19 10:42:20;;;;;;;6.38;5.40;;;8.60;99.90;;;;;;5332915;26;20059;-58
2024/04/19 10:44:48;;;;;;;9.25;5.80;;;8.80;99.90;;;;;;5336428;26;19997;-60
2024/04/19 10:47:16;;;;;;;6.03;5.18;;;8.80;99.90;;;;;;5337544;26;20078;-59
2024/04/19 10:49:47;;;;;;;6.20;4.88;;;8.80;99.90;;;;;;5338258;26;20011;-58
2024/04/19 10:52:18;;;;;;;7.43;5.57;;;8.80;99.90;;;;;;5334059;26;20016;-58
2024/04/19 10:54:45;;;;;;;7.13;5.30;;;8.80;99.90;;;;;;5332561;26;20001;-58
2024/04/19 10:57:12;;;;;;;6.90;5.20;;;8.90;99.90;;;;;;5332226;26;20001;-59
2024/04/19 10:59:39;;;;;;;6.85;5.32;;;8.80;99.90;;;;;;5330595;26;20015;-59
2024/04/19 11:02:07;;;;;;;8.73;5.05;;;8.90;99.90;;;;;;5339531;26;20008;-58
2024/04/19 11:04:34;;;;;;;6.43;5.30;;;8.90;99.90;;;;;;5339203;26;20008;-58
2024/04/19 11:07:00;;;;;;;5.82;4.97;;;8.90;99.90;;;;;;5336837;26;20005;-57
2024/04/19 11:09:28;;;;;;;7.50;5.20;;;8.90;99.90;;;;;;5337675;26;20005;-58
2024/04/19 11:11:56;;;;;;;5.63;4.80;;;8.90;99.90;;;;;;5335872;26;20001;-59
2024/04/19 11:14:23;;;;;;;7.72;4.88;;;9.00;99.90;;;;;;5335593;26;20037;-57
2024/04/19 11:16:50;;;;;;;6.32;4.65;;;9.00;99.90;;;;;;5331346;26;20002;-58
2024/04/19 11:19:17;;;;;;;6.07;4.40;;;9.10;99.90;;;;;;5334404;26;19997;-58
2024/04/19 11:21:45;;;;;;;5.75;4.32;;;9.10;99.90;;;;;;5341372;26;20012;-59
2024/04/19 11:24:12;;;;;;;8.68;4.35;;;9.00;99.90;;;;;;5331133;26;20705;-57
2024/04/19 11:26:39;;;;;;;6.18;4.32;;;9.00;99.90;;;;;;5337820;26;20016;-58
2024/04/19 11:29:06;;;;;;;5.57;4.50;;;9.00;99.90;;;;;;5333784;26;20005;-58
2024/04/19 11:31:39;;;;;;;6.80;4.30;;;9.10;99.90;;;;;;5333629;26;20013;-59
2024/04/19 11:34:06;;;;;;;7.35;4.30;;;9.30;99.90;;;;;;5332257;26;20009;-58
2024/04/19 11:36:34;;;;;;;6.75;4.32;;;9.40;99.90;;;;;;5335268;26;20180;-57
2024/04/19 11:39:01;;;;;;;6.68;3.92;;;9.50;99.90;;;;;;5340602;26;20001;-58
2024/04/19 11:41:29;;;;;;;5.65;4.18;;;9.50;99.90;;;;;;5330245;26;20045;-57
2024/04/19 11:43:58;;;;;;;4.85;3.60;;;9.40;99.90;;;;;;5332744;26;20121;-58
2024/04/19 11:46:28;;;;;;;5.38;4.00;;;9.30;99.90;;;;;;5335089;26;20009;-60
2024/04/19 11:48:58;;;;;;;9.13;4.10;;;9.20;99.90;;;;;;5329720;26;20084;-59
2024/04/19 11:51:26;;;;;;;3.88;3.40;;;9.20;99.90;;;;;;5331822;26;20024;-60
2024/04/19 11:53:53;;;;;;;4.50;3.10;;;9.20;99.90;;;;;;5340794;26;20074;-60
2024/04/19 11:56:20;;;;;;;3.92;2.35;;;9.10;99.90;;;;;;5332458;26;20020;-58
2024/04/19 11:58:52;;;;;;;3.60;2.65;;;9.00;99.90;;;;;;5328190;26;20007;-58
2024/04/19 12:01:19;;;;;;;3.63;2.25;;;9.00;99.90;;;;;;5335665;26;20016;-55
2024/04/19 12:03:46;;;;;;;6.47;2.60;;;9.00;99.90;;;;;;5330288;26;20428;-59
2024/04/19 12:06:14;;;;;;;3.47;2.17;;;9.10;99.90;;;;;;5335980;26;20011;-58
2024/04/19 12:08:41;;;;;;;4.20;1.80;;;9.00;99.90;;;;;;5330781;26;20425;-59
2024/04/19 12:11:08;;;;;;;3.03;1.90;;;9.00;99.90;;;;;;5332270;26;20020;-57
2024/04/19 12:13:35;;;;;;;2.58;1.73;;;9.00;99.90;;;;;;5332394;26;20021;-59
2024/04/19 12:16:23;;;;;;;2.40;1.80;;;9.00;99.90;;;;;;5334125;26;20008;-59
2024/04/19 12:19:10;;;;;;;3.60;1.80;;;9.00;99.90;;;;;;5332937;26;20009;-59
2024/04/19 12:21:37;;;;;;;2.45;1.65;;;9.00;99.90;;;;;;5329585;26;20013;-59
2024/04/19 12:24:06;;;;;;;5.53;1.92;;;9.00;99.90;;;;;;5330061;26;20010;-58
2024/04/19 12:26:34;;;;;;;2.83;1.63;;;8.90;99.90;;;;;;5333911;26;20013;-58
2024/04/19 12:29:01;;;;;;;2.72;1.52;;;9.00;99.90;;;;;;5327312;26;20012;-59
2024/04/19 12:31:29;;;;;;;4.35;2.10;;;8.90;99.90;;;;;;5335365;26;20013;-60
2024/04/19 12:33:55;;;;;;;3.85;2.20;;;9.00;99.90;;;;;;5333406;26;20017;-60
2024/04/19 12:36:22;;;;;;;6.47;3.00;;;8.90;99.90;;;;;;5333151;26;20109;-61
2024/04/19 12:38:49;;;;;;;4.32;1.60;;;8.90;99.90;;;;;;5336813;26;20345;-61
2024/04/19 12:41:16;;;;;;;3.67;1.63;;;8.90;99.90;;;;;;5330105;26;20005;-59
2024/04/19 12:43:44;;;;;;;2.13;1.58;;;8.90;99.90;;;;;;5336476;26;20075;-61
2024/04/19 12:46:10;;;;;;;4.35;1.60;;;8.90;99.90;;;;;;5331001;26;20028;-59
2024/04/19 12:48:37;;;;;;;2.63;1.90;;;8.90;99.90;;;;;;5336047;26;20009;-61
2024/04/19 12:51:05;;;;;;;2.53;1.40;;;8.90;99.90;;;;;;5330436;26;20001;-60
2024/04/19 12:53:31;;;;;;;4.43;1.67;;;8.90;99.90;;;;;;5334262;26;20011;-62
2024/04/19 12:55:58;;;;;;;2.63;1.70;;;8.90;99.90;;;;;;5332145;26;20334;-60
2024/04/19 12:58:26;;;;;;;2.53;1.55;;;8.90;99.90;;;;;;5330055;26;20078;-59
2024/04/19 13:00:52;;;;;;;5.95;1.52;;;8.90;99.90;;;;;;5328521;26;20012;-58